KGVT/GVT METAR and TAF weather

Enter ICAO airport designator
Station Type Date Time Source
KGVT METAR 2020/04/09 09:50 UTC NOAA

KGVT 090950Z AUTO 00000KT 10SM CLR 20/13 A2985 RMK AO2


Station Type Date Time Source
KGVT Decoded METAR 2020/04/09 09:50 UTC NOAA

Greenville / Majors, TX, United States (KGVT) 33-04N 096-04W
Apr 09, 2020 - 05:50 AM EDT / 2020.04.09 0950 UTC
Wind: Calm:0
Visibility: 10 mile(s):0
Sky conditions: clear
Temperature: 68 F (20 C)
Dew Point: 55 F (13 C)
Relative Humidity: 64%
Pressure (altimeter): 29.85 in. Hg (1010 hPa)
ob: KGVT 090950Z AUTO 00000KT 10SM CLR 20/13 A2985 RMK AO2
cycle: 10

Station Type Date Time Source
KGVT TAF UTC NOAA

Error!

Example: see airport list